Clinton, Washington
Current Conditions -  °F | °C
As of 11:53 AM on Wednesday 26 Nov 2014 (Local Time) from KPAE Reporting Station
Clear Clear  
Wind Chill: 14°   Ceiling: Unl
Heat Index: 14°   Visibility: 10mi
Dew Point: 11°   Wind: 24mph
Humidity: 81%   Direction: 190°S
Pressure: 30.06"   Gusts: 32mph
Location:  47.98°N, 122.36°W
Report Text: KPAE 261953Z 19021G28KT 10SM CLR 14/11 A3006 RMK AO2 PK WND 19032/1904 SLP178 T01390106
Loading
Personal Weather Stations






























Interactive Weather Map New forecast layout! Learn more

10-Day Weather Forecast

Advertisements
Track Severe Weather on mobile